createdAt,value
2023-04-15T00:01:41.097Z,14.15
2023-04-15T00:04:07.883Z,11.60
2023-04-15T00:06:35.141Z,12.88
2023-04-15T00:09:02.503Z,15.20
2023-04-15T00:11:29.513Z,13.93
2023-04-15T00:13:56.373Z,9.30
2023-04-15T00:16:23.578Z,13.35
2023-04-15T00:18:50.315Z,12.95
2023-04-15T00:21:17.243Z,19.17
2023-04-15T00:23:44.236Z,13.13
2023-04-15T00:26:10.984Z,12.57
2023-04-15T00:28:38.599Z,13.88
2023-04-15T00:31:05.809Z,15.40
2023-04-15T00:33:33.377Z,14.18
2023-04-15T00:36:00.130Z,14.65
2023-04-15T00:38:27.157Z,13.80
2023-04-15T00:40:54.146Z,15.38
2023-04-15T00:43:23.601Z,14.50
2023-04-15T00:45:52.112Z,15.48
2023-04-15T00:48:19.024Z,13.60
2023-04-15T00:50:45.762Z,12.80
2023-04-15T00:53:12.732Z,16.42
2023-04-15T00:55:40.056Z,15.90
2023-04-15T00:58:07.201Z,15.43
2023-04-15T01:00:34.659Z,15.50
2023-04-15T01:03:01.722Z,17.63
2023-04-15T01:05:28.629Z,15.30
2023-04-15T01:07:56.772Z,11.68
2023-04-15T01:10:23.667Z,20.27
2023-04-15T01:12:50.502Z,12.48
2023-04-15T01:15:17.369Z,16.65
2023-04-15T01:17:44.251Z,20.80
2023-04-15T01:20:12.164Z,16.70
2023-04-15T01:22:39.573Z,16.85
2023-04-15T01:25:10.699Z,14.43
2023-04-15T01:27:39.969Z,18.77
2023-04-15T01:30:07.945Z,14.98
2023-04-15T01:32:34.729Z,18.38
2023-04-15T01:35:20.251Z,13.20
2023-04-15T01:37:48.296Z,15.07
2023-04-15T01:40:17.407Z,14.98
2023-04-15T01:42:45.652Z,20.65
2023-04-15T01:45:14.182Z,13.85
2023-04-15T01:47:42.516Z,15.93
2023-04-15T01:50:11.344Z,17.27
2023-04-15T01:52:39.577Z,17.63
2023-04-15T01:55:08.578Z,12.73
2023-04-15T01:57:37.100Z,14.60
2023-04-15T02:00:05.268Z,18.25
2023-04-15T02:02:41.505Z,15.77
2023-04-15T02:05:09.976Z,16.55
2023-04-15T02:07:38.752Z,14.48
2023-04-15T02:10:07.252Z,15.02
2023-04-15T02:12:37.028Z,17.90
2023-04-15T02:15:05.469Z,19.98
2023-04-15T02:17:37.673Z,18.05
2023-04-15T02:20:06.477Z,14.43
2023-04-15T02:22:36.092Z,14.18
2023-04-15T02:25:06.969Z,16.15
2023-04-15T02:27:36.219Z,14.85
2023-04-15T02:30:07.697Z,19.52
2023-04-15T02:32:38.092Z,14.57
2023-04-15T02:35:07.732Z,14.85
2023-04-15T02:37:40.846Z,14.43
2023-04-15T02:40:13.746Z,13.85
2023-04-15T02:42:42.996Z,15.65
2023-04-15T02:45:13.764Z,15.93
2023-04-15T02:47:44.078Z,18.48
2023-04-15T02:50:13.334Z,16.90
2023-04-15T02:52:44.785Z,14.98
2023-04-15T02:55:16.310Z,15.30
2023-04-15T02:57:44.455Z,17.27
2023-04-15T03:00:16.285Z,13.48
2023-04-15T03:02:47.123Z,17.20
2023-04-15T03:05:15.462Z,15.75
2023-04-15T03:07:49.558Z,14.30
2023-04-15T03:10:17.884Z,19.17
2023-04-15T03:12:47.574Z,16.90
2023-04-15T03:15:19.329Z,14.38
2023-04-15T03:17:51.218Z,16.67
2023-04-15T03:20:19.723Z,13.73
2023-04-15T03:22:49.304Z,15.98
2023-04-15T03:25:17.611Z,19.33
2023-04-15T03:27:45.528Z,16.20
2023-04-15T03:30:14.990Z,14.43
2023-04-15T03:32:43.167Z,16.75
2023-04-15T03:35:11.321Z,13.02
2023-04-15T03:37:39.549Z,11.93
2023-04-15T03:40:08.817Z,18.65
2023-04-15T03:42:37.082Z,14.68
2023-04-15T03:45:05.724Z,14.15
2023-04-15T03:47:33.827Z,17.58
2023-04-15T03:50:01.951Z,14.10
2023-04-15T03:52:29.989Z,12.65
2023-04-15T03:54:58.045Z,12.30
2023-04-15T03:57:26.465Z,15.88
2023-04-15T03:59:54.652Z,16.38
2023-04-15T04:02:23.327Z,15.38
2023-04-15T04:04:53.187Z,14.77
2023-04-15T04:07:24.341Z,15.55
2023-04-15T04:10:05.811Z,18.10
2023-04-15T04:12:35.009Z,15.93
2023-04-15T04:15:03.372Z,17.58
2023-04-15T04:17:31.591Z,12.02
2023-04-15T04:19:59.906Z,16.30
2023-04-15T04:22:29.337Z,12.73
2023-04-15T04:25:00.668Z,14.82
2023-04-15T04:27:28.878Z,15.80
2023-04-15T04:29:56.764Z,16.90
2023-04-15T04:32:25.030Z,12.32
2023-04-15T04:34:52.987Z,17.88
2023-04-15T04:37:20.940Z,15.10
2023-04-15T04:39:49.150Z,12.93
2023-04-15T04:42:17.101Z,13.85
2023-04-15T04:44:45.190Z,17.17
2023-04-15T04:47:13.980Z,14.75
2023-04-15T04:49:42.260Z,12.63
2023-04-15T04:52:10.752Z,14.45
2023-04-15T04:54:38.843Z,19.70
2023-04-15T04:57:08.125Z,17.48
2023-04-15T04:59:38.919Z,17.20
2023-04-15T05:02:07.348Z,13.85
2023-04-15T05:04:35.717Z,15.95
2023-04-15T05:07:03.649Z,17.63
2023-04-15T05:09:32.645Z,16.00
2023-04-15T05:12:01.411Z,17.83
2023-04-15T05:14:29.540Z,13.95
2023-04-15T05:16:57.652Z,15.98
2023-04-15T05:19:25.753Z,13.38
2023-04-15T05:21:53.729Z,15.85
2023-04-15T05:24:22.415Z,19.08
2023-04-15T05:26:50.510Z,23.05
2023-04-15T05:29:18.479Z,16.55
2023-04-15T05:31:46.714Z,16.50
2023-04-15T05:34:16.541Z,13.25
2023-04-15T05:36:44.500Z,14.95
2023-04-15T05:39:12.898Z,15.38
2023-04-15T05:41:41.088Z,15.25
2023-04-15T05:44:09.524Z,14.90
2023-04-15T05:46:37.860Z,13.18
2023-04-15T05:49:06.234Z,17.02
2023-04-15T05:51:34.149Z,13.35
2023-04-15T05:54:02.348Z,17.17
2023-04-15T05:56:30.642Z,14.27
2023-04-15T05:59:02.222Z,15.70
2023-04-15T06:01:30.914Z,16.92
2023-04-15T06:03:58.922Z,14.20
2023-04-15T06:06:27.358Z,14.38
2023-04-15T06:08:55.968Z,17.80
2023-04-15T06:11:24.190Z,14.10
2023-04-15T06:13:52.199Z,17.08
2023-04-15T06:16:20.220Z,13.63
2023-04-15T06:18:48.169Z,14.77
2023-04-15T06:21:16.426Z,12.75
2023-04-15T06:23:44.528Z,14.30
2023-04-15T06:26:12.760Z,16.40
2023-04-15T06:28:40.798Z,14.80
2023-04-15T06:31:08.824Z,12.48
2023-04-15T06:33:36.972Z,17.77
2023-04-15T06:36:05.213Z,12.45
2023-04-15T06:38:33.267Z,13.02
2023-04-15T06:41:01.348Z,17.35
2023-04-15T06:43:29.716Z,13.52
2023-04-15T06:45:58.203Z,12.48
2023-04-15T06:48:26.371Z,14.90
2023-04-15T06:50:54.741Z,12.63
2023-04-15T06:53:23.001Z,13.50
2023-04-15T06:55:52.459Z,11.65
2023-04-15T06:58:20.457Z,13.90
2023-04-15T07:00:48.832Z,13.32
2023-04-15T07:03:17.170Z,14.02
2023-04-15T07:05:45.090Z,13.82
2023-04-15T07:08:14.160Z,12.73
2023-04-15T07:10:42.071Z,14.30
2023-04-15T07:13:10.400Z,12.50
2023-04-15T07:15:38.492Z,14.85
2023-04-15T07:18:06.708Z,12.52
2023-04-15T07:20:34.637Z,15.50
2023-04-15T07:23:02.817Z,12.32
2023-04-15T07:25:51.756Z,12.77
2023-04-15T07:28:22.693Z,12.02
2023-04-15T07:30:50.778Z,13.25
2023-04-15T07:33:19.036Z,11.60
2023-04-15T07:35:47.184Z,11.60
2023-04-15T07:38:15.562Z,11.93
2023-04-15T07:40:44.041Z,15.00
2023-04-15T07:43:17.203Z,11.45
2023-04-15T07:45:45.398Z,9.95
2023-04-15T07:48:13.343Z,11.00
2023-04-15T07:50:41.503Z,12.15
2023-04-15T07:53:09.598Z,11.35
2023-04-15T07:55:37.517Z,9.50
2023-04-15T07:58:05.829Z,11.45
2023-04-15T08:00:33.842Z,11.88
2023-04-15T08:03:02.397Z,11.95
2023-04-15T08:05:30.464Z,13.02
2023-04-15T08:07:58.760Z,10.80
2023-04-15T08:10:27.317Z,10.07
2023-04-15T08:12:55.445Z,12.93
2023-04-15T08:15:23.570Z,10.13
2023-04-15T08:17:51.690Z,9.98
2023-04-15T08:20:19.743Z,10.38
2023-04-15T08:22:51.776Z,11.63
2023-04-15T08:25:22.813Z,9.40
2023-04-15T08:27:50.969Z,8.80
2023-04-15T08:30:19.539Z,10.32
2023-04-15T08:32:47.700Z,10.48
2023-04-15T08:35:15.828Z,10.15
2023-04-15T08:37:43.967Z,9.65
2023-04-15T08:40:12.768Z,10.45
2023-04-15T08:42:49.052Z,11.18
2023-04-15T08:45:18.291Z,12.65
2023-04-15T08:47:48.843Z,10.13
2023-04-15T08:50:17.252Z,12.40
2023-04-15T08:52:45.439Z,14.25
2023-04-15T08:55:13.768Z,11.48
2023-04-15T08:57:41.933Z,10.73
2023-04-15T09:00:10.667Z,9.77
2023-04-15T09:02:39.370Z,10.00
2023-04-15T09:05:07.939Z,10.55
2023-04-15T09:07:36.683Z,8.18
2023-04-15T09:10:04.967Z,7.68
2023-04-15T09:12:34.802Z,11.32
2023-04-15T09:15:03.351Z,8.93
2023-04-15T09:17:34.810Z,10.68
2023-04-15T09:20:09.764Z,5.75
2023-04-15T09:22:38.133Z,7.25
2023-04-15T09:25:14.947Z,9.32
2023-04-15T09:27:49.929Z,7.15
2023-04-15T09:30:18.368Z,5.10
2023-04-15T09:33:08.362Z,6.70
2023-04-15T09:35:37.106Z,7.57
2023-04-15T09:38:05.975Z,6.55
2023-04-15T09:40:37.210Z,7.95
2023-04-15T09:43:06.235Z,8.90
2023-04-15T09:45:34.824Z,6.57
2023-04-15T09:48:32.022Z,7.25
2023-04-15T09:51:00.588Z,5.20
2023-04-15T09:53:30.561Z,6.47
2023-04-15T09:56:03.122Z,5.03
2023-04-15T09:58:31.854Z,4.30
2023-04-15T10:01:01.790Z,6.65
2023-04-15T10:03:31.741Z,5.85
2023-04-15T10:06:00.790Z,6.97
2023-04-15T10:08:33.817Z,5.35
2023-04-15T10:11:02.582Z,8.50
2023-04-15T10:13:36.669Z,5.95
2023-04-15T10:16:11.970Z,8.07
2023-04-15T10:21:08.746Z,7.90
2023-04-15T10:23:36.930Z,4.88
2023-04-15T10:26:05.050Z,4.50
2023-04-15T10:28:33.018Z,5.65
2023-04-15T10:31:01.483Z,3.55
2023-04-15T10:33:29.829Z,4.50
2023-04-15T10:35:57.971Z,4.80
2023-04-15T10:38:32.279Z,5.32
2023-04-15T10:41:18.721Z,5.75
2023-04-15T10:43:51.750Z,3.45
2023-04-15T10:46:40.167Z,4.38
2023-04-15T10:49:12.836Z,4.35
2023-04-15T10:51:42.177Z,4.60
2023-04-15T10:54:14.488Z,4.28
2023-04-15T10:56:43.890Z,4.47
2023-04-15T10:59:12.111Z,4.65
2023-04-15T11:02:00.218Z,4.55
2023-04-15T11:04:47.107Z,3.55
2023-04-15T11:07:15.147Z,4.53
2023-04-15T11:09:43.172Z,5.18
2023-04-15T11:12:11.973Z,4.88
2023-04-15T11:14:41.453Z,6.25
2023-04-15T11:17:09.604Z,5.40
2023-04-15T11:19:38.921Z,4.43
2023-04-15T11:22:08.405Z,3.45
2023-04-15T11:24:37.037Z,4.50
2023-04-15T11:27:04.980Z,5.82
2023-04-15T11:29:33.051Z,4.07
2023-04-15T11:32:09.521Z,5.25
2023-04-15T11:34:37.828Z,3.60
2023-04-15T11:37:06.416Z,5.25
2023-04-15T11:39:34.443Z,5.07
2023-04-15T11:42:02.778Z,10.18
2023-04-15T11:44:30.742Z,6.43
2023-04-15T11:46:58.817Z,5.15
2023-04-15T11:49:31.265Z,3.83
2023-04-15T11:51:58.099Z,6.38
2023-04-15T11:54:24.859Z,5.20
2023-04-15T11:56:52.679Z,4.97
2023-04-15T11:59:19.602Z,5.53
2023-04-15T12:01:47.730Z,5.32
2023-04-15T12:04:17.164Z,8.70
2023-04-15T12:06:44.561Z,4.18
2023-04-15T12:09:12.454Z,5.57
2023-04-15T12:11:43.457Z,4.10
2023-04-15T12:14:21.561Z,4.65
2023-04-15T12:16:51.717Z,5.53
2023-04-15T12:19:24.402Z,4.30
2023-04-15T12:21:51.528Z,5.22
2023-04-15T12:24:21.015Z,6.93
2023-04-15T12:26:48.803Z,6.13
2023-04-15T12:29:16.901Z,4.45
2023-04-15T12:31:47.781Z,6.20
2023-04-15T12:34:14.632Z,6.78
2023-04-15T12:36:41.407Z,3.40
2023-04-15T12:39:08.119Z,4.13
2023-04-15T12:41:35.006Z,2.67
2023-04-15T12:44:02.014Z,4.70
2023-04-15T12:46:29.001Z,2.92
2023-04-15T12:48:55.933Z,3.45
2023-04-15T12:51:22.696Z,2.85
2023-04-15T12:53:49.781Z,6.22
2023-04-15T12:56:19.913Z,3.13
2023-04-15T12:58:47.059Z,2.50
2023-04-15T13:01:14.005Z,3.33
2023-04-15T13:03:41.274Z,3.28
2023-04-15T13:06:08.231Z,3.92
2023-04-15T13:08:36.950Z,3.30
2023-04-15T13:11:07.305Z,4.40
2023-04-15T13:13:34.290Z,5.35
2023-04-15T13:16:01.097Z,4.38
2023-04-15T13:18:27.968Z,3.58
2023-04-15T13:20:55.417Z,4.88
2023-04-15T13:23:22.237Z,4.45
2023-04-15T13:25:49.031Z,4.55
2023-04-15T13:28:15.942Z,4.65
2023-04-15T13:30:44.083Z,4.03
2023-04-15T13:33:11.350Z,2.97
2023-04-15T13:35:38.040Z,4.10
2023-04-15T13:38:05.170Z,3.83
2023-04-15T13:40:32.085Z,2.67
2023-04-15T13:42:59.951Z,3.97
2023-04-15T13:45:27.116Z,3.90
2023-04-15T13:47:55.627Z,6.60
2023-04-15T13:50:22.621Z,3.45
2023-04-15T13:52:49.506Z,3.78
2023-04-15T13:55:20.625Z,5.53
2023-04-15T13:57:48.861Z,4.00
2023-04-15T14:00:15.708Z,4.72
2023-04-15T14:02:42.902Z,3.05
2023-04-15T14:05:10.780Z,2.40
2023-04-15T14:07:37.731Z,3.63
2023-04-15T14:10:04.743Z,7.70
2023-04-15T14:12:32.031Z,6.47
2023-04-15T14:14:58.799Z,6.30
2023-04-15T14:17:25.640Z,3.13
2023-04-15T14:19:52.435Z,2.67
2023-04-15T14:22:19.353Z,5.57
2023-04-15T14:24:46.281Z,4.07
2023-04-15T14:27:13.022Z,5.88
2023-04-15T14:29:41.015Z,5.32
2023-04-15T14:32:11.941Z,5.28
2023-04-15T14:34:39.577Z,4.90
2023-04-15T14:37:06.478Z,8.55
2023-04-15T14:39:33.296Z,3.53
2023-04-15T14:42:00.419Z,3.50
2023-04-15T14:44:27.289Z,3.40
2023-04-15T14:46:54.893Z,3.40
2023-04-15T14:49:21.883Z,3.85
2023-04-15T14:51:48.636Z,4.55
2023-04-15T14:54:15.560Z,5.53
2023-04-15T14:56:42.324Z,5.25
2023-04-15T14:59:09.049Z,3.45
2023-04-15T15:01:36.355Z,3.25
2023-04-15T15:04:03.900Z,2.17
2023-04-15T15:06:31.533Z,3.47
2023-04-15T15:08:58.262Z,2.35
2023-04-15T15:11:25.548Z,2.80
2023-04-15T15:13:52.372Z,4.70
2023-04-15T15:16:19.219Z,3.85
2023-04-15T15:18:45.984Z,3.05
2023-04-15T15:21:12.740Z,2.35
2023-04-15T15:23:39.542Z,3.35
2023-04-15T15:26:06.417Z,3.80
2023-04-15T15:28:34.166Z,3.95
2023-04-15T15:31:01.124Z,2.97
2023-04-15T15:33:29.616Z,4.40
2023-04-15T15:36:00.294Z,3.90
2023-04-15T15:38:27.786Z,4.97
2023-04-15T15:40:54.696Z,4.10
2023-04-15T15:43:21.429Z,3.08
2023-04-15T15:45:51.784Z,4.60
2023-04-15T15:48:18.886Z,5.05
2023-04-15T15:50:45.845Z,6.38
2023-04-15T15:53:17.870Z,6.78
2023-04-15T15:55:44.738Z,8.73
2023-04-15T15:58:11.590Z,6.35
2023-04-15T16:00:38.479Z,9.32
2023-04-15T16:03:07.222Z,6.07
2023-04-15T16:05:35.409Z,6.70
2023-04-15T16:08:02.404Z,5.22
2023-04-15T16:10:29.264Z,7.25
2023-04-15T16:12:56.406Z,3.53
2023-04-15T16:15:25.459Z,5.20
2023-04-15T16:17:52.462Z,5.45
2023-04-15T16:20:19.350Z,7.20
2023-04-15T16:22:46.356Z,4.53
2023-04-15T16:25:13.177Z,5.45
2023-04-15T16:27:54.669Z,4.20
2023-04-15T16:30:27.235Z,6.00
2023-04-15T16:32:54.141Z,6.20
2023-04-15T16:35:20.998Z,4.07
2023-04-15T16:37:47.722Z,6.90
2023-04-15T16:40:15.011Z,7.13
2023-04-15T16:42:43.669Z,5.03
2023-04-15T16:45:10.937Z,6.03
2023-04-15T16:47:37.745Z,6.93
2023-04-15T16:50:04.769Z,5.57
2023-04-15T16:52:31.490Z,9.57
2023-04-15T16:54:58.324Z,8.18
2023-04-15T16:57:25.206Z,5.75
2023-04-15T16:59:59.712Z,5.75
2023-04-15T17:02:26.777Z,4.07
2023-04-15T17:04:53.546Z,8.75
2023-04-15T17:07:20.451Z,5.05
2023-04-15T17:09:47.230Z,4.68
2023-04-15T17:12:14.075Z,9.82
2023-04-15T17:14:40.963Z,4.15
2023-04-15T17:17:07.806Z,5.57
2023-04-15T17:19:36.794Z,5.95
2023-04-15T17:22:06.674Z,2.25
2023-04-15T17:24:35.309Z,8.50
2023-04-15T17:27:06.797Z,4.88
2023-04-15T17:29:35.543Z,9.15
2023-04-15T17:32:05.464Z,5.15
2023-04-15T17:34:52.328Z,6.47
2023-04-15T17:37:19.086Z,8.27
2023-04-15T17:40:08.800Z,8.95
2023-04-15T17:42:56.176Z,4.50
2023-04-15T17:45:47.352Z,87.60
2023-04-15T17:48:34.323Z,89.93
2023-04-15T17:51:21.794Z,34.00
2023-04-15T17:54:08.702Z,86.53
2023-04-15T17:56:56.775Z,22.27
2023-04-15T17:59:45.047Z,23.33
2023-04-15T18:02:36.921Z,20.45
2023-04-15T18:05:24.173Z,10.40
2023-04-15T18:08:11.640Z,10.73
2023-04-15T18:10:58.437Z,53.47
2023-04-15T18:16:31.980Z,40.00
2023-04-15T18:19:19.215Z,15.57
2023-04-15T18:21:46.567Z,15.35
2023-04-15T18:24:13.351Z,12.13
2023-04-15T18:26:40.311Z,8.90
2023-04-15T18:29:07.161Z,9.60
2023-04-15T18:31:34.135Z,21.08
2023-04-15T18:34:00.904Z,13.65
2023-04-15T18:36:27.788Z,12.27
2023-04-15T18:38:54.605Z,13.57
2023-04-15T18:41:21.625Z,17.77
2023-04-15T18:43:48.316Z,6.53
2023-04-15T18:46:15.232Z,10.18
2023-04-15T18:48:42.136Z,29.98
2023-04-15T18:51:08.966Z,8.98
2023-04-15T18:53:35.983Z,8.57
2023-04-15T18:56:03.430Z,10.15
2023-04-15T18:59:21.254Z,9.65
2023-04-15T19:01:17.340Z,7.68
2023-04-15T19:03:44.357Z,10.63
2023-04-15T19:06:11.162Z,7.38
2023-04-15T19:08:37.900Z,9.38
2023-04-15T19:11:04.663Z,13.18
2023-04-15T19:13:31.460Z,8.73
2023-04-15T19:15:58.249Z,6.10
2023-04-15T19:18:26.532Z,6.35
2023-04-15T19:20:55.857Z,13.00
2023-04-15T19:23:23.133Z,6.47
2023-04-15T19:25:50.016Z,9.13
2023-04-15T19:28:16.793Z,8.10
2023-04-15T19:30:43.631Z,9.90
2023-04-15T19:33:10.986Z,12.05
2023-04-15T19:35:38.313Z,7.32
2023-04-15T19:38:05.002Z,13.45
2023-04-15T19:40:31.705Z,9.82
2023-04-15T19:42:58.442Z,7.07
2023-04-15T19:45:25.325Z,13.38
2023-04-15T19:47:53.146Z,8.95
2023-04-15T19:50:24.606Z,12.85
2023-04-15T19:52:51.411Z,6.10
2023-04-15T19:55:18.294Z,5.97
2023-04-15T19:57:45.343Z,6.75
2023-04-15T20:00:12.539Z,7.80
2023-04-15T20:02:39.813Z,11.50
2023-04-15T20:05:09.895Z,7.18
2023-04-15T20:07:36.795Z,19.35
2023-04-15T20:10:12.240Z,6.50
2023-04-15T20:15:18.899Z,19.02
2023-04-15T20:17:45.845Z,9.07
2023-04-15T20:20:12.794Z,13.15
2023-04-15T20:22:39.689Z,8.73
2023-04-15T20:25:06.651Z,5.88
2023-04-15T20:27:33.542Z,13.02
2023-04-15T20:30:00.578Z,10.88
2023-04-15T20:32:28.413Z,8.90
2023-04-15T20:34:55.365Z,9.32
2023-04-15T20:37:22.513Z,8.55
2023-04-15T20:39:49.246Z,10.65
2023-04-15T20:42:16.202Z,6.78
2023-04-15T20:44:43.000Z,14.30
2023-04-15T20:47:09.938Z,9.73
2023-04-15T20:49:37.461Z,9.00
2023-04-15T20:52:05.161Z,11.80
2023-04-15T20:54:32.056Z,5.80
2023-04-15T20:56:58.910Z,5.78
2023-04-15T20:59:25.872Z,11.13
2023-04-15T21:01:52.928Z,7.88
2023-04-15T21:04:21.972Z,4.03
2023-04-15T21:06:48.873Z,5.53
2023-04-15T21:09:15.667Z,12.60
2023-04-15T21:11:59.755Z,9.45
2023-04-15T21:14:27.238Z,6.45
2023-04-15T21:16:54.067Z,6.75
2023-04-15T21:19:21.011Z,9.65
2023-04-15T21:21:47.837Z,9.75
2023-04-15T21:24:14.545Z,6.05
2023-04-15T21:26:41.369Z,9.18
2023-04-15T21:29:11.141Z,6.70
2023-04-15T21:31:38.670Z,7.35
2023-04-15T21:34:05.874Z,6.85
2023-04-15T21:36:32.750Z,13.10
2023-04-15T21:39:00.007Z,4.40
2023-04-15T21:41:27.005Z,9.63
2023-04-15T21:43:53.977Z,6.45
2023-04-15T21:46:24.542Z,5.63
2023-04-15T21:48:55.481Z,6.55
2023-04-15T21:51:22.881Z,9.15
2023-04-15T21:53:49.813Z,9.57
2023-04-15T21:56:16.776Z,6.43
2023-04-15T21:58:43.657Z,6.80
2023-04-15T22:01:11.012Z,6.57
2023-04-15T22:03:38.136Z,7.00
2023-04-15T22:06:05.188Z,7.82
2023-04-15T22:08:41.217Z,8.35
2023-04-15T22:11:26.316Z,9.15
2023-04-15T22:13:53.962Z,8.52
2023-04-15T22:16:21.039Z,8.95
2023-04-15T22:18:48.089Z,12.35
2023-04-15T22:21:15.022Z,6.50
2023-04-15T22:23:41.873Z,6.00
2023-04-15T22:26:08.745Z,7.53
2023-04-15T22:28:35.735Z,12.20
2023-04-15T22:31:02.649Z,13.65
2023-04-15T22:33:29.872Z,10.55
2023-04-15T22:35:56.842Z,7.65
2023-04-15T22:38:24.392Z,10.05
2023-04-15T22:40:53.927Z,6.47
2023-04-15T22:43:20.845Z,5.47
2023-04-15T22:45:51.126Z,10.27
2023-04-15T22:48:18.342Z,5.50
2023-04-15T22:50:45.237Z,8.73
2023-04-15T22:53:12.022Z,11.50
2023-04-15T22:55:39.477Z,7.55
2023-04-15T22:58:06.322Z,6.25
2023-04-15T23:00:33.273Z,6.10
2023-04-15T23:03:00.360Z,11.43
2023-04-15T23:05:27.690Z,6.82
2023-04-15T23:07:54.667Z,10.50
2023-04-15T23:10:21.610Z,10.20
2023-04-15T23:12:48.578Z,12.10
2023-04-15T23:15:15.837Z,11.80
2023-04-15T23:17:43.166Z,14.60
2023-04-15T23:20:11.390Z,8.30
2023-04-15T23:22:38.805Z,7.25
2023-04-15T23:25:06.256Z,9.10
2023-04-15T23:27:33.152Z,9.10
2023-04-15T23:29:59.922Z,14.57
2023-04-15T23:32:27.601Z,14.35
2023-04-15T23:34:54.826Z,7.85
2023-04-15T23:37:21.776Z,12.52
2023-04-15T23:39:48.610Z,14.82
2023-04-15T23:42:15.477Z,10.10
2023-04-15T23:44:42.261Z,14.82
2023-04-15T23:47:09.554Z,11.13
2023-04-15T23:49:37.027Z,16.92
2023-04-15T23:52:03.978Z,12.60
2023-04-15T23:54:30.840Z,16.50
2023-04-15T23:56:57.671Z,10.45
2023-04-15T23:59:24.723Z,9.93
